CheckWX is a tool to help pilots better visualize weather data.  It is not intended as a substitute for an official pre-flight weather briefing.

15:16:11 UTC

KJOT METAR
Joliet Regional Airport
Joliet, Illinois, USA
Current

41 mins ago

KJOT 201435Z AUTO 33008G14KT 10SM OVC024 10/04 A3005 RMK AO2 T00980043
Observed
May-20 @ 14:35 UTC
Wind
  • 330° at 8 KTS
  • Gusting to 14 KTS
Visibility
10 SM
Flight Rules
MVFR
Cloud Levels
  • Overcast at 2,400' AGL
Temperature
10°C / 50°F
Dewpoint
C / 39°F
Humidity
67%
Altimeter
30.05" Hg
Pressure
1017.62 hPa
Previous

1 hour ago

KJOT 201415Z AUTO 31007KT 260V330 10SM OVC022 10/05 A3005 RMK AO2 T00950047
Observed
May-20 @ 14:15 UTC
Wind
  • 310° at 7 KTS
Visibility
10 SM
Flight Rules
MVFR
Cloud Levels
  • Overcast at 2,200' AGL
Temperature
10°C / 50°F
Dewpoint
C / 41°F
Humidity
71%
Altimeter
30.05" Hg
Pressure
1017.62 hPa
Previous

1 hour ago

KJOT 201355Z AUTO 31006KT 280V340 10SM OVC022 10/05 A3004 RMK AO2 T00950050
Observed
May-20 @ 13:55 UTC
Wind
  • 310° at 6 KTS
Visibility
10 SM
Flight Rules
MVFR
Cloud Levels
  • Overcast at 2,200' AGL
Temperature
10°C / 50°F
Dewpoint
C / 41°F
Humidity
71%
Altimeter
30.04" Hg
Pressure
1017.32 hPa